Time;durP1;ratioP1;P1;durP2;ratioP2;P2;SDS_P1;SDS_P2;PMS_P1;PMS_P2;Temp;Humidity;BMP_temperature;BMP_pressure;BME280_temperature;BME280_humidity;BME280_pressure;Samples;Min_cycle;Max_cycle;Signal;HPM_P1;HPM_P2
2021/12/28 00:01:19;;;;;;;74.13;24.63;;;;;;;6.43;100.00;99093.94;4931221;29;20042;-78
2021/12/28 00:04:07;;;;;;;75.65;24.08;;;;;;;6.43;100.00;99084.25;4931884;29;20062;-78
2021/12/28 00:06:37;;;;;;;67.78;22.77;;;;;;;6.07;100.00;99042.28;4914894;29;20068;-77
2021/12/28 00:09:04;;;;;;;65.03;21.33;;;;;;;6.22;100.00;99044.38;4915312;29;20036;-79
2021/12/28 00:11:34;;;;;;;59.72;22.00;;;;;;;6.32;100.00;99073.97;4912452;29;20036;-78
2021/12/28 00:14:01;;;;;;;59.83;21.85;;;;;;;6.19;100.00;99071.72;4947202;29;20524;-77
2021/12/28 00:16:34;;;;;;;51.55;22.13;;;;;;;5.74;100.00;98996.53;4941767;29;20034;-77
2021/12/28 00:19:03;;;;;;;54.65;20.55;;;;;;;6.39;100.00;99042.75;4936995;29;20042;-77
2021/12/28 00:21:32;;;;;;;58.67;22.13;;;;;;;5.81;100.00;99015.09;4948311;29;20027;-78
2021/12/28 00:24:01;;;;;;;60.72;21.23;;;;;;;6.50;100.00;99084.50;4930206;29;20031;-77
2021/12/28 00:26:30;;;;;;;45.78;19.50;;;;;;;5.51;100.00;98948.97;4928248;29;20537;-77
2021/12/28 00:28:56;;;;;;;47.65;20.33;;;;;;;6.01;100.00;99042.03;4946489;29;20027;-78
2021/12/28 00:31:26;;;;;;;49.05;18.70;;;;;;;6.28;100.00;99083.94;4944969;29;20106;-78
2021/12/28 00:33:58;;;;;;;49.17;19.15;;;;;;;6.36;100.00;99077.13;4943724;29;20081;-78
2021/12/28 00:36:24;;;;;;;53.08;19.10;;;;;;;5.63;100.00;99015.91;4959783;29;20028;-77
2021/12/28 00:38:50;;;;;;;50.03;19.13;;;;;;;6.32;100.00;99070.53;4958154;29;20040;-77
2021/12/28 00:41:16;;;;;;;47.90;19.13;;;;;;;6.02;100.00;99030.59;4958271;29;20098;-77
2021/12/28 00:43:42;;;;;;;45.53;19.27;;;;;;;5.94;100.00;99033.94;4926442;29;20027;-78
2021/12/28 00:46:10;;;;;;;48.78;17.35;;;;;;;6.19;100.00;99055.16;4927050;28;20094;-77
2021/12/28 00:48:37;;;;;;;44.30;17.85;;;;;;;5.65;100.00;98942.41;4941359;29;20031;-77
2021/12/28 00:51:05;;;;;;;43.53;16.90;;;;;;;6.21;100.00;99064.53;4960295;29;20027;-79
2021/12/28 00:53:40;;;;;;;45.40;16.40;;;;;;;6.01;100.00;99000.13;4942831;29;20035;-78
2021/12/28 00:56:06;;;;;;;42.53;15.85;;;;;;;5.79;100.00;99014.41;4945610;29;20024;-78
2021/12/28 00:58:37;;;;;;;48.17;14.90;;;;;;;5.79;100.00;99023.13;4927899;29;20027;-77
2021/12/28 01:01:09;;;;;;;46.28;15.45;;;;;;;5.89;100.00;99072.81;4942269;29;20102;-77
2021/12/28 01:03:38;;;;;;;39.22;14.70;;;;;;;5.35;100.00;99008.97;4941001;28;20026;-77
2021/12/28 01:06:05;;;;;;;32.80;14.90;;;;;;;5.78;100.00;99062.53;4942605;29;20031;-77
2021/12/28 01:08:34;;;;;;;42.05;14.45;;;;;;;5.80;100.00;99068.47;4942616;29;20110;-77
2021/12/28 01:11:00;;;;;;;35.67;13.10;;;;;;;6.12;100.00;99061.97;4943711;29;20042;-78
2021/12/28 01:13:27;;;;;;;39.90;13.52;;;;;;;5.50;100.00;98963.03;4944037;29;20031;-77
2021/12/28 01:15:55;;;;;;;34.75;12.75;;;;;;;6.03;100.00;99063.69;4944099;29;20032;-77
2021/12/28 01:18:21;;;;;;;32.15;12.57;;;;;;;6.15;100.00;99056.44;4930347;29;20033;-76
2021/12/28 01:20:47;;;;;;;34.97;12.57;;;;;;;6.01;100.00;99019.28;4964489;29;20055;-76
2021/12/28 01:23:15;;;;;;;39.85;12.25;;;;;;;5.97;100.00;99025.81;4966347;29;20031;-77
2021/12/28 01:25:40;;;;;;;27.08;10.80;;;;;;;5.43;100.00;98954.94;4969381;29;20047;-77
2021/12/28 01:28:08;;;;;;;35.47;10.75;;;;;;;6.20;100.00;99062.03;4967480;29;20031;-77
2021/12/28 01:30:34;;;;;;;30.15;10.95;;;;;;;6.23;100.00;99067.00;4929389;29;20508;-76
2021/12/28 01:33:02;;;;;;;30.95;9.85;;;;;;;5.94;100.00;98996.41;4961415;29;20027;-77
2021/12/28 01:35:29;;;;;;;32.03;10.70;;;;;;;6.09;100.00;99046.53;4960966;29;20119;-77
2021/12/28 01:41:36;;;;;;;28.15;9.20;;;;;;;5.94;100.00;99035.72;4957571;29;20089;-77
2021/12/28 01:44:07;;;;;;;32.47;9.07;;;;;;;6.18;100.00;99038.63;4925521;29;20035;-78
2021/12/28 01:46:34;;;;;;;39.70;10.18;;;;;;;6.20;100.00;99034.06;4925867;29;20039;-78
2021/12/28 01:49:00;;;;;;;41.13;9.38;;;;;;;6.10;100.00;99043.78;4909994;29;20397;-78
2021/12/28 01:51:27;;;;;;;38.28;9.68;;;;;;;6.04;100.00;99028.63;4958258;29;20023;-78
2021/12/28 01:53:57;;;;;;;26.92;8.75;;;;;;;5.42;100.00;98955.91;4941078;29;20023;-78
2021/12/28 01:56:27;;;;;;;35.85;9.13;;;;;;;5.38;100.00;98956.34;4941691;29;20082;-76
2021/12/28 01:58:54;;;;;;;28.92;8.70;;;;;;;6.16;100.00;99042.38;4959270;28;20031;-77
2021/12/28 02:01:19;;;;;;;38.35;8.95;;;;;;;5.05;100.00;98895.78;4945004;29;20506;-77
2021/12/28 02:03:46;;;;;;;29.80;8.30;;;;;;;5.81;100.00;98989.75;4944774;29;20067;-78
2021/12/28 02:06:13;;;;;;;36.45;8.85;;;;;;;5.80;100.00;98984.66;4944785;29;20139;-77
2021/12/28 02:08:40;;;;;;;31.73;8.13;;;;;;;5.66;100.00;98975.50;4945887;29;20125;-79
2021/12/28 02:11:07;;;;;;;25.23;7.75;;;;;;;5.05;100.00;98874.03;4930957;29;20496;-78
2021/12/28 02:13:36;;;;;;;36.90;7.97;;;;;;;5.89;100.00;99038.78;4962106;29;20031;-77
2021/12/28 02:16:03;;;;;;;33.13;8.35;;;;;;;5.29;100.00;98965.91;4927985;29;20062;-77
2021/12/28 02:18:31;;;;;;;33.35;7.53;;;;;;;5.88;100.00;99039.72;4962017;29;20031;-77
2021/12/28 02:20:59;;;;;;;32.13;7.50;;;;;;;6.28;100.00;99035.94;4961148;29;20024;-78
2021/12/28 02:23:28;;;;;;;29.15;7.47;;;;;;;5.31;100.00;98934.34;4962303;29;20111;-78
2021/12/28 02:25:55;;;;;;;27.25;7.45;;;;;;;5.09;100.00;98889.28;4944437;29;20027;-78
2021/12/28 02:28:24;;;;;;;31.73;6.82;;;;;;;6.15;100.00;99022.34;4943982;29;20050;-77
2021/12/28 02:30:56;;;;;;;32.00;6.93;;;;;;;6.05;100.00;99015.38;4927102;29;20050;-78
2021/12/28 02:33:26;;;;;;;29.35;6.97;;;;;;;6.24;100.00;99024.91;4944433;29;20401;-79
2021/12/28 02:42:41;;;;;;;34.28;7.05;;;;;;;5.75;100.00;99018.31;4961422;29;20497;-78
2021/12/28 02:45:26;;;;;;;27.45;6.25;;;;;;;5.77;100.00;98959.56;4963500;29;20026;-78
2021/12/28 02:47:52;;;;;;;35.70;6.75;;;;;;;5.49;100.00;98939.63;4962744;29;20461;-77
2021/12/28 02:50:30;;;;;;;33.05;6.05;;;;;;;5.23;100.00;98904.50;4949625;29;20079;-77
2021/12/28 02:52:56;;;;;;;62.47;18.40;;;;;;;5.46;100.00;98914.56;4961805;29;20027;-78
2021/12/28 02:55:31;;;;;;;28.35;6.50;;;;;;;5.27;100.00;98884.09;4960955;29;20050;-77
2021/12/28 02:58:04;;;;;;;31.55;6.22;;;;;;;6.12;100.00;98999.09;4927281;29;20078;-78
2021/12/28 03:00:35;;;;;;;36.15;8.18;;;;;;;6.04;100.00;98994.56;4960331;29;20022;-77
2021/12/28 03:03:05;;;;;;;37.17;6.68;;;;;;;5.94;100.00;98976.31;4961154;29;20027;-78
2021/12/28 03:05:33;;;;;;;34.75;7.50;;;;;;;5.86;100.00;98950.81;4926777;29;20500;-76
2021/12/28 03:07:59;;;;;;;33.13;5.93;;;;;;;5.42;100.00;98895.69;4925510;29;20047;-77
2021/12/28 03:10:25;;;;;;;27.60;6.32;;;;;;;6.00;100.00;98977.53;4940714;29;20038;-77
2021/12/28 03:12:50;;;;;;;36.90;6.38;;;;;;;5.81;100.00;98947.84;4942245;29;20389;-78
2021/12/28 03:15:16;;;;;;;23.65;5.38;;;;;;;6.05;100.00;98949.06;4960532;29;20389;-77
2021/12/28 03:17:42;;;;;;;26.50;5.70;;;;;;;5.76;100.00;98894.25;4945934;29;20027;-77
2021/12/28 03:20:13;;;;;;;31.15;5.57;;;;;;;6.28;100.00;98993.97;4936074;29;20098;-77
2021/12/28 03:22:39;;;;;;;28.27;5.63;;;;;;;5.82;100.00;98919.84;4951370;29;20031;-78
2021/12/28 03:25:06;;;;;;;27.05;5.35;;;;;;;6.09;100.00;98968.75;4965193;29;20039;-78
2021/12/28 03:27:31;;;;;;;32.05;5.53;;;;;;;5.40;100.00;98828.75;4944450;29;20035;-77
2021/12/28 03:29:57;;;;;;;33.58;6.00;;;;;;;5.55;100.00;98882.25;4949107;29;20482;-77
2021/12/28 03:32:23;;;;;;;35.03;5.78;;;;;;;5.66;100.00;98878.59;4936095;29;20030;-77
2021/12/28 03:34:49;;;;;;;28.92;5.65;;;;;;;5.76;100.00;98897.66;4947583;29;20049;-78
2021/12/28 03:37:15;;;;;;;32.80;6.00;;;;;;;5.91;100.00;98897.16;4949678;29;20422;-77
2021/12/28 03:39:43;;;;;;;29.35;5.40;;;;;;;6.38;100.00;98957.19;4967136;29;20104;-77
2021/12/28 03:42:09;;;;;;;23.45;5.53;;;;;;;6.22;100.00;98914.16;4948848;29;20050;-77
2021/12/28 03:44:35;;;;;;;29.02;5.82;;;;;;;6.29;100.00;98953.72;4943818;29;20035;-77
2021/12/28 03:47:02;;;;;;;24.80;5.70;;;;;;;6.09;100.00;98931.22;4943275;29;20046;-77
2021/12/28 03:49:27;;;;;;;27.60;5.43;;;;;;;5.97;100.00;98909.69;4928303;29;20497;-78
2021/12/28 03:51:53;;;;;;;23.20;5.38;;;;;;;5.67;100.00;98853.22;4944266;29;20031;-79
2021/12/28 03:54:19;;;;;;;30.45;5.10;;;;;;;6.03;100.00;98888.94;4960826;29;20031;-78
2021/12/28 03:56:45;;;;;;;25.63;5.53;;;;;;;5.85;100.00;98840.94;4927514;29;20019;-77
2021/12/28 03:59:12;;;;;;;24.73;5.22;;;;;;;5.42;100.00;98824.19;4928005;29;20532;-77
2021/12/28 04:01:39;;;;;;;27.08;5.70;;;;;;;5.57;100.00;98835.81;4961254;29;20027;-77
2021/12/28 04:04:04;;;;;;;27.25;5.47;;;;;;;6.21;100.00;98902.03;4959747;28;20120;-77
2021/12/28 04:06:31;;;;;;;30.05;5.45;;;;;;;5.84;100.00;98861.09;4943407;29;20196;-78
2021/12/28 04:09:02;;;;;;;26.52;5.70;;;;;;;6.07;100.00;98889.47;4960157;29;20067;-78
2021/12/28 04:11:27;;;;;;;23.92;5.22;;;;;;;5.75;100.00;98812.22;4943275;29;20034;-78
2021/12/28 04:13:57;;;;;;;24.63;4.95;;;;;;;5.76;100.00;98850.53;4926680;29;20027;-78
2021/12/28 04:16:26;;;;;;;24.88;5.13;;;;;;;6.37;100.00;98924.09;4942323;29;20031;-78
2021/12/28 04:18:53;;;;;;;27.30;5.88;;;;;;;5.76;100.00;98821.72;4959457;29;20020;-78
2021/12/28 04:21:19;;;;;;;30.25;5.70;;;;;;;6.26;100.00;98909.44;4941971;29;20030;-78
2021/12/28 04:23:46;;;;;;;29.00;5.57;;;;;;;5.55;100.00;98759.19;4941226;29;20497;-77
2021/12/28 04:26:13;;;;;;;32.00;4.88;;;;;;;6.41;100.00;98913.16;4959236;29;20418;-78
2021/12/28 04:28:38;;;;;;;30.95;5.25;;;;;;;6.18;100.00;98899.72;4959374;29;20034;-77
2021/12/28 04:31:04;;;;;;;26.38;4.72;;;;;;;5.86;100.00;98832.94;4943398;29;20039;-77
2021/12/28 04:33:30;;;;;;;25.63;4.95;;;;;;;6.28;100.00;98899.63;4960342;29;20027;-77
2021/12/28 04:35:57;;;;;;;27.45;4.97;;;;;;;6.02;100.00;98868.97;4930655;29;20065;-78
2021/12/28 04:42:04;;;;;;;25.77;5.10;;;;;;;6.26;100.00;98888.47;4959229;29;20174;-77
2021/12/28 04:44:29;;;;;;;30.02;5.28;;;;;;;5.68;100.00;98826.91;4926140;29;20038;-76
2021/12/28 04:46:55;;;;;;;32.85;5.75;;;;;;;6.25;100.00;98871.09;4941953;29;20027;-77
2021/12/28 04:49:24;;;;;;;26.92;5.43;;;;;;;5.87;100.00;98825.91;4942767;29;20035;-77
2021/12/28 04:51:50;;;;;;;26.42;5.07;;;;;;;5.99;100.00;98837.81;4942258;29;20047;-77
2021/12/28 04:54:16;;;;;;;31.15;5.35;;;;;;;6.09;100.00;98874.44;4960066;29;20078;-78
2021/12/28 04:56:46;;;;;;;26.00;5.75;;;;;;;5.79;100.00;98824.06;4942422;29;20033;-78
2021/12/28 04:59:16;;;;;;;23.08;5.47;;;;;;;5.63;100.00;98771.53;4959148;29;20027;-76
2021/12/28 05:01:42;;;;;;;27.98;5.20;;;;;;;6.33;100.00;98867.69;4941020;29;20081;-76
2021/12/28 05:04:09;;;;;;;26.40;5.35;;;;;;;5.65;100.00;98783.53;4924578;29;20043;-77
2021/12/28 05:06:35;;;;;;;24.15;5.38;;;;;;;5.55;100.00;98795.84;4940639;29;20122;-77
2021/12/28 05:09:04;;;;;;;23.23;5.10;;;;;;;5.61;100.00;98753.38;4959257;29;20035;-77
2021/12/28 05:11:31;;;;;;;22.58;4.95;;;;;;;6.10;100.00;98854.28;4960525;29;20031;-77
2021/12/28 05:13:57;;;;;;;28.08;4.93;;;;;;;6.27;100.00;98869.16;4964026;29;20031;-78
2021/12/28 05:16:27;;;;;;;26.98;4.70;;;;;;;5.84;100.00;98781.69;4946405;29;20035;-78
2021/12/28 05:18:53;;;;;;;23.15;4.57;;;;;;;6.21;100.00;98867.13;4948066;29;20110;-77
2021/12/28 05:21:19;;;;;;;28.92;4.60;;;;;;;5.83;100.00;98770.38;4964108;29;20185;-77
2021/12/28 05:27:25;;;;;;;22.30;4.93;;;;;;;6.21;100.00;98814.72;4959212;29;20097;-78
2021/12/28 05:29:51;;;;;;;27.48;5.15;;;;;;;6.17;100.00;98834.34;4941718;29;20020;-78
2021/12/28 05:32:17;;;;;;;25.65;4.50;;;;;;;5.76;100.00;98784.25;4940560;29;20058;-78
2021/12/28 05:34:50;;;;;;;29.43;4.33;;;;;;;6.19;100.00;98830.59;4957548;29;20071;-78
2021/12/28 05:37:17;;;;;;;29.20;4.68;;;;;;;5.24;100.00;98677.66;4940603;29;20636;-78
2021/12/28 05:39:44;;;;;;;25.15;4.22;;;;;;;6.01;100.00;98777.41;4958375;29;20042;-78
2021/12/28 05:42:11;;;;;;;23.40;4.50;;;;;;;5.87;100.00;98776.13;4942435;29;20027;-77
2021/12/28 05:44:37;;;;;;;29.73;5.32;;;;;;;5.54;100.00;98717.47;4943501;29;20034;-77
2021/12/28 05:47:03;;;;;;;24.45;4.45;;;;;;;5.44;100.00;98684.34;4962002;29;20027;-77
2021/12/28 05:49:29;;;;;;;29.00;4.53;;;;;;;6.21;100.00;98838.31;4928898;29;20090;-77
2021/12/28 05:52:00;;;;;;;27.27;4.60;;;;;;;5.93;100.00;98779.97;4961556;29;20112;-78
2021/12/28 05:54:27;;;;;;;26.88;5.20;;;;;;;6.15;100.00;98802.22;4943560;29;20039;-78
2021/12/28 05:56:53;;;;;;;22.48;5.03;;;;;;;6.36;100.00;98820.19;4941732;29;20023;-78
2021/12/28 05:59:21;;;;;;;29.98;5.20;;;;;;;6.10;100.00;98781.72;4940324;29;20051;-78
2021/12/28 06:01:48;;;;;;;23.70;4.93;;;;;;;6.21;100.00;98796.38;4957836;29;20067;-77
2021/12/28 06:04:14;;;;;;;26.95;5.20;;;;;;;6.32;100.00;98811.84;4939739;29;20051;-77
2021/12/28 06:06:39;;;;;;;26.45;5.78;;;;;;;6.53;100.00;98816.69;4940175;29;20039;-78
2021/12/28 06:09:05;;;;;;;27.42;5.85;;;;;;;5.60;100.00;98688.88;4940887;29;20394;-78
2021/12/28 06:11:32;;;;;;;32.08;6.50;;;;;;;5.75;100.00;98717.94;4940496;29;20063;-77
2021/12/28 06:13:59;;;;;;;24.33;6.15;;;;;;;5.63;100.00;98688.59;4941155;29;20031;-78
2021/12/28 06:16:26;;;;;;;27.05;6.60;;;;;;;5.97;100.00;98735.00;4959920;29;20023;-78
2021/12/28 06:18:51;;;;;;;29.73;7.03;;;;;;;6.10;100.00;98752.09;4959606;29;20042;-77
2021/12/28 06:21:17;;;;;;;22.70;6.15;;;;;;;5.34;100.00;98656.63;4942812;29;20478;-78
2021/12/28 06:27:24;;;;;;;29.05;7.20;;;;;;;6.32;100.00;98801.34;4957699;29;20046;-78
2021/12/28 06:29:50;;;;;;;34.80;6.57;;;;;;;6.28;100.00;98766.75;4958754;29;20032;-78
2021/12/28 06:32:16;;;;;;;100.07;39.47;;;;;;;6.20;100.00;98781.59;4945436;29;20027;-81
2021/12/28 06:34:42;;;;;;;24.50;6.72;;;;;;;6.31;100.00;98812.78;4947482;29;20049;-82
2021/12/28 06:37:08;;;;;;;29.33;6.93;;;;;;;6.53;100.00;98800.97;4948448;29;20116;-80
2021/12/28 06:39:33;;;;;;;28.25;6.97;;;;;;;6.25;100.00;98793.28;4947754;29;20050;-79
2021/12/28 06:41:59;;;;;;;38.85;12.10;;;;;;;6.28;100.00;98802.63;4944988;29;20023;-80
2021/12/28 06:44:25;;;;;;;30.90;9.38;;;;;;;6.31;100.00;98781.34;4962720;28;20022;-80
2021/12/28 06:46:50;;;;;;;20.92;7.18;;;;;;;5.81;100.00;98691.16;4947397;29;20047;-81
2021/12/28 06:49:17;;;;;;;27.52;7.78;;;;;;;6.41;100.00;98797.78;4928824;29;20046;-76
2021/12/28 06:51:42;;;;;;;26.50;7.97;;;;;;;5.98;100.00;98733.19;4960409;29;20524;-78
2021/12/28 06:54:08;;;;;;;27.70;8.00;;;;;;;6.39;100.00;98773.53;4945410;29;20055;-74
2021/12/28 06:56:34;;;;;;;33.78;8.30;;;;;;;6.07;100.00;98722.59;4927056;29;20023;-76
2021/12/28 06:59:00;;;;;;;25.58;8.07;;;;;;;6.38;100.00;98765.81;4926782;29;20035;-76
2021/12/28 07:01:25;;;;;;;20.35;7.60;;;;;;;6.09;100.00;98724.22;4935234;29;20059;-77
2021/12/28 07:03:51;;;;;;;30.23;10.60;;;;;;;5.98;100.00;98683.41;4960210;28;20055;-76
2021/12/28 07:06:18;;;;;;;22.90;8.30;;;;;;;6.23;100.00;98760.34;4967012;29;20046;-77
2021/12/28 07:12:28;;;;;;;30.10;9.95;;;;;;;6.51;100.00;98760.16;4957899;29;20110;-75
2021/12/28 07:14:54;;;;;;;21.48;7.70;;;;;;;6.42;100.00;98764.53;4959072;29;20059;-77
2021/12/28 07:17:19;;;;;;;27.75;8.90;;;;;;;6.60;100.00;98754.78;4960824;29;20115;-77
2021/12/28 07:19:46;;;;;;;26.67;8.05;;;;;;;6.03;100.00;98662.78;4935059;29;20027;-77
2021/12/28 07:22:12;;;;;;;28.17;8.10;;;;;;;6.51;100.00;98753.09;4952887;29;20023;-78
2021/12/28 07:24:37;;;;;;;27.95;9.20;;;;;;;6.33;100.00;98747.13;4969501;29;20027;-77
2021/12/28 07:27:03;;;;;;;21.52;7.65;;;;;;;5.60;100.00;98612.94;4970429;29;20171;-78
2021/12/28 07:29:29;;;;;;;27.90;10.15;;;;;;;6.06;100.00;98720.97;4932269;29;20071;-76
2021/12/28 07:31:55;;;;;;;41.38;18.73;;;;;;;5.96;100.00;98677.50;4965990;29;20031;-74
2021/12/28 07:34:21;;;;;;;36.65;13.27;;;;;;;6.57;100.00;98770.03;4945441;29;20036;-75
2021/12/28 07:36:46;;;;;;;33.00;10.98;;;;;;;6.20;100.00;98719.56;4942660;29;20032;-77
2021/12/28 07:42:53;;;;;;;22.02;8.32;;;;;;;6.38;100.00;98743.06;4960210;29;20045;-77
2021/12/28 07:45:19;;;;;;;23.65;8.65;;;;;;;6.41;100.00;98742.75;4942680;29;20103;-76
2021/12/28 07:47:45;;;;;;;24.08;8.10;;;;;;;6.20;100.00;98709.06;4961400;29;20050;-75
2021/12/28 07:50:14;;;;;;;26.23;9.55;;;;;;;6.19;100.00;98688.25;4961042;29;20034;-77
2021/12/28 07:52:40;;;;;;;22.73;8.48;;;;;;;5.47;100.00;98601.25;4962085;29;20038;-77
2021/12/28 07:55:08;;;;;;;46.05;19.10;;;;;;;6.63;100.00;98737.91;4962358;29;20028;-77
2021/12/28 07:57:34;;;;;;;23.02;8.40;;;;;;;6.56;100.00;98734.25;4929105;29;20035;-77
2021/12/28 08:00:02;;;;;;;22.52;8.23;;;;;;;5.99;100.00;98643.13;4947442;29;20027;-78
2021/12/28 08:02:29;;;;;;;22.67;8.15;;;;;;;6.25;100.00;98688.44;4961225;29;20023;-76
2021/12/28 08:04:54;;;;;;;27.38;9.50;;;;;;;6.59;100.00;98723.47;4942992;29;20070;-77
2021/12/28 08:07:20;;;;;;;23.05;8.95;;;;;;;6.11;100.00;98662.00;4958811;29;20078;-76
2021/12/28 08:09:46;;;;;;;22.25;7.80;;;;;;;6.52;100.00;98723.28;4926132;29;20514;-77
2021/12/28 08:12:11;;;;;;;24.00;8.20;;;;;;;6.39;100.00;98658.19;4960091;29;20027;-76
2021/12/28 08:14:37;;;;;;;25.77;8.40;;;;;;;6.01;100.00;98605.31;4942805;29;20071;-76
2021/12/28 08:17:02;;;;;;;21.05;7.85;;;;;;;6.58;100.00;98700.84;4941842;29;20037;-75
2021/12/28 08:19:28;;;;;;;51.92;23.73;;;;;;;6.58;100.00;98714.78;4941021;29;20023;-78
2021/12/28 08:21:54;;;;;;;25.95;8.55;;;;;;;6.26;100.00;98655.19;4957852;29;20038;-78
2021/12/28 08:28:04;;;;;;;25.98;7.03;;;;;;;6.36;100.00;98689.13;4969408;29;20130;-80
2021/12/28 08:30:31;;;;;;;25.98;8.73;;;;;;;6.48;100.00;98711.47;4949014;29;20493;-80
2021/12/28 08:32:57;;;;;;;26.52;10.35;;;;;;;6.03;100.00;98641.84;4949966;29;20443;-80
2021/12/28 08:35:23;;;;;;;24.95;9.70;;;;;;;5.65;100.00;98579.28;4962712;29;20023;-79
2021/12/28 08:37:48;;;;;;;18.27;7.32;;;;;;;6.60;100.00;98701.50;4944413;29;20114;-79
2021/12/28 08:40:16;;;;;;;20.10;8.10;;;;;;;6.58;100.00;98683.31;4960359;29;20023;-77
2021/12/28 08:42:42;;;;;;;28.38;9.88;;;;;;;5.74;100.00;98579.28;4910778;29;20031;-79
2021/12/28 08:45:08;;;;;;;24.95;10.90;;;;;;;6.32;100.00;98656.38;4947162;29;20083;-78
2021/12/28 08:47:35;;;;;;;23.25;8.82;;;;;;;6.67;100.00;98700.69;4943685;29;20134;-78
2021/12/28 08:50:01;;;;;;;18.60;7.20;;;;;;;6.63;100.00;98703.81;4960187;29;20500;-79
2021/12/28 08:52:26;;;;;;;19.38;8.20;;;;;;;6.02;100.00;98580.75;4960361;29;20031;-78
2021/12/28 08:54:54;;;;;;;20.02;7.72;;;;;;;6.63;100.00;98690.69;4960044;29;20118;-78
2021/12/28 08:57:20;;;;;;;18.48;8.05;;;;;;;6.68;100.00;98683.19;4943215;29;20473;-78
2021/12/28 08:59:46;;;;;;;19.50;7.57;;;;;;;6.77;100.00;98684.00;4960832;29;20038;-75
2021/12/28 09:02:12;;;;;;;25.15;9.13;;;;;;;6.72;100.00;98681.84;4942063;28;20114;-77
2021/12/28 09:04:42;;;;;;;24.50;9.68;;;;;;;6.54;100.00;98662.81;4941460;29;20122;-79
2021/12/28 09:07:13;;;;;;;23.10;8.95;;;;;;;6.49;100.00;98634.44;4960240;29;20074;-77
2021/12/28 09:09:39;;;;;;;22.73;9.10;;;;;;;5.88;100.00;98541.22;4957908;29;20427;-79
2021/12/28 09:12:05;;;;;;;19.55;9.55;;;;;;;6.46;100.00;98601.50;4960025;29;20081;-79
2021/12/28 09:14:32;;;;;;;22.98;8.82;;;;;;;6.84;100.00;98662.22;4963208;29;20038;-76
2021/12/28 09:16:58;;;;;;;21.02;8.52;;;;;;;6.28;100.00;98593.75;4947564;29;20034;-77
2021/12/28 09:19:24;;;;;;;70.00;35.22;;;;;;;6.42;100.00;98605.41;4963536;29;20033;-77
2021/12/28 09:21:51;;;;;;;31.17;15.07;;;;;;;6.82;100.00;98653.69;4941454;29;20019;-78
2021/12/28 09:28:26;;;;;;;22.40;10.43;;;;;;;6.86;100.00;98647.13;4960311;29;20105;-78
2021/12/28 09:30:53;;;;;;;16.02;7.15;;;;;;;6.97;100.00;98645.16;4959073;29;20099;-80
2021/12/28 09:33:19;;;;;;;66.03;27.80;;;;;;;6.89;100.00;98619.75;4935645;29;20027;-76
2021/12/28 09:35:45;;;;;;;16.67;7.45;;;;;;;6.82;100.00;98651.06;4948370;29;20404;-77
2021/12/28 09:38:11;;;;;;;17.45;6.65;;;;;;;6.57;100.00;98620.53;4928974;29;20038;-76
2021/12/28 09:40:37;;;;;;;18.67;7.25;;;;;;;6.84;100.00;98641.22;4959659;29;20062;-78
2021/12/28 09:43:06;;;;;;;28.58;13.30;;;;;;;6.76;100.00;98646.47;4941711;29;20023;-77
2021/12/28 09:45:33;;;;;;;18.17;7.90;;;;;;;6.76;100.00;98653.50;4926574;29;20028;-77
2021/12/28 09:47:58;;;;;;;19.20;8.85;;;;;;;6.61;100.00;98608.75;4941976;29;20032;-78
2021/12/28 09:50:25;;;;;;;19.38;7.95;;;;;;;6.51;100.00;98584.47;4958593;29;20067;-77
2021/12/28 09:52:51;;;;;;;18.92;8.77;;;;;;;6.81;100.00;98646.81;4940074;29;20371;-77
2021/12/28 09:55:21;;;;;;;18.45;8.75;;;;;;;6.95;100.00;98637.47;4939230;29;20027;-76
2021/12/28 09:57:47;;;;;;;20.70;9.98;;;;;;;5.85;100.00;98482.09;4957399;29;20047;-77
2021/12/28 10:00:14;;;;;;;23.10;10.20;;;;;;;6.93;100.00;98625.47;4943089;29;20102;-77
2021/12/28 10:02:40;;;;;;;21.80;10.18;;;;;;;6.33;100.00;98517.25;4959649;29;20027;-76
2021/12/28 10:05:16;;;;;;;26.15;10.80;;;;;;;6.31;100.00;98516.59;4956582;28;20058;-77
2021/12/28 10:07:49;;;;;;;23.43;10.47;;;;;;;6.64;100.00;98545.47;4958488;29;20066;-77
2021/12/28 10:10:15;;;;;;;24.83;10.70;;;;;;;6.89;100.00;98614.50;4941274;29;20023;-77
2021/12/28 10:12:49;;;;;;;22.45;10.68;;;;;;;6.45;100.00;98529.09;4939910;29;20065;-77
2021/12/28 10:15:19;;;;;;;24.63;11.57;;;;;;;6.45;100.00;98500.25;4942372;29;20031;-75
2021/12/28 10:17:49;;;;;;;20.33;10.00;;;;;;;7.04;100.00;98599.75;4943096;29;20039;-76
2021/12/28 10:20:30;;;;;;;21.70;10.57;;;;;;;6.96;100.00;98584.00;4960969;28;20117;-75
2021/12/28 10:22:58;;;;;;;20.75;10.27;;;;;;;6.85;100.00;98537.91;4962538;29;20038;-75
2021/12/28 10:25:37;;;;;;;23.10;10.73;;;;;;;6.97;100.00;98564.66;4943959;29;20038;-75
2021/12/28 10:28:11;;;;;;;22.88;10.23;;;;;;;7.08;100.00;98580.03;4961323;29;20039;-76
2021/12/28 10:30:47;;;;;;;20.10;9.45;;;;;;;6.99;100.00;98578.41;4929689;29;20108;-74
2021/12/28 10:33:20;;;;;;;22.35;10.73;;;;;;;6.83;100.00;98552.19;4945107;29;20126;-76
2021/12/28 10:35:58;;;;;;;21.23;10.70;;;;;;;6.14;100.00;98450.25;4943668;29;20389;-76
2021/12/28 10:38:29;;;;;;;20.55;11.30;;;;;;;6.36;100.00;98467.16;4961784;29;20035;-75
2021/12/28 10:41:00;;;;;;;21.05;10.52;;;;;;;6.79;100.00;98512.38;4961025;29;20027;-76
2021/12/28 10:43:28;;;;;;;25.08;10.80;;;;;;;7.01;100.00;98552.84;4960970;29;20027;-75
2021/12/28 10:46:01;;;;;;;23.60;10.57;;;;;;;6.39;100.00;98458.13;4927290;29;20023;-75
2021/12/28 10:48:48;;;;;;;25.40;11.68;;;;;;;6.99;100.00;98553.97;4961294;29;20058;-75
2021/12/28 10:51:23;;;;;;;21.80;10.55;;;;;;;6.39;100.00;98432.72;4962433;29;20070;-76
2021/12/28 10:54:02;;;;;;;19.52;10.00;;;;;;;7.01;100.00;98528.41;4948384;29;20226;-76
2021/12/28 10:56:34;;;;;;;22.90;10.98;;;;;;;7.02;100.00;98520.38;4963845;29;20028;-77
2021/12/28 10:58:59;;;;;;;22.92;11.05;;;;;;;6.53;100.00;98443.53;4961628;29;20058;-75
2021/12/28 11:01:32;;;;;;;21.05;9.98;;;;;;;7.05;100.00;98514.78;4961761;29;20035;-76
2021/12/28 11:04:03;;;;;;;22.35;10.73;;;;;;;6.60;100.00;98452.38;4962099;28;20421;-75
2021/12/28 11:06:31;;;;;;;19.75;9.18;;;;;;;6.12;100.00;98372.81;4944568;29;20043;-76
2021/12/28 11:09:00;;;;;;;16.17;8.60;;;;;;;7.06;100.00;98520.84;4946125;29;20043;-75
2021/12/28 11:11:26;;;;;;;17.45;9.25;;;;;;;6.72;100.00;98432.69;4962088;29;20028;-75
2021/12/28 11:13:58;;;;;;;14.07;7.68;;;;;;;7.05;100.00;98506.91;4928676;29;20027;-75
2021/12/28 11:16:26;;;;;;;15.73;7.65;;;;;;;6.95;100.00;98485.28;4933583;29;20050;-75
2021/12/28 11:18:57;;;;;;;11.95;6.45;;;;;;;7.03;100.00;98500.19;4946527;29;20059;-75
2021/12/28 11:21:27;;;;;;;14.35;7.18;;;;;;;7.04;100.00;98480.81;4929516;29;20398;-74
2021/12/28 11:24:00;;;;;;;14.63;7.68;;;;;;;6.94;100.00;98430.34;4944155;29;20371;-75
2021/12/28 11:26:32;;;;;;;14.10;6.88;;;;;;;7.22;100.00;98480.63;4943514;29;20047;-75
2021/12/28 11:29:05;;;;;;;14.70;6.22;;;;;;;7.11;100.00;98490.50;4943974;29;20037;-76
2021/12/28 11:31:33;;;;;;;12.95;6.32;;;;;;;7.15;100.00;98482.28;4961596;28;20023;-75
2021/12/28 11:34:06;;;;;;;13.90;6.05;;;;;;;6.73;100.00;98410.72;4945932;29;20035;-76
2021/12/28 11:36:45;;;;;;;9.82;4.70;;;;;;;6.71;100.00;98414.50;4964019;29;20077;-75
2021/12/28 11:39:18;;;;;;;9.63;4.80;;;;;;;6.65;100.00;98418.59;4929809;29;20023;-75
2021/12/28 11:41:45;;;;;;;9.15;4.90;;;;;;;6.91;100.00;98460.38;4929296;29;20028;-75
2021/12/28 11:44:13;;;;;;;9.10;4.65;;;;;;;6.53;100.00;98406.84;4945450;29;20167;-76
2021/12/28 11:46:38;;;;;;;7.85;3.72;;;;;;;6.74;100.00;98420.22;4943074;29;20027;-74
2021/12/28 11:49:07;;;;;;;10.40;4.18;;;;;;;6.87;100.00;98452.00;4945982;29;20110;-76
2021/12/28 11:51:34;;;;;;;10.70;4.32;;;;;;;6.80;100.00;98432.69;4963151;29;20055;-75
2021/12/28 11:54:04;;;;;;;12.20;4.65;;;;;;;6.73;100.00;98402.06;4962283;29;20024;-75
2021/12/28 11:56:33;;;;;;;9.75;4.18;;;;;;;6.20;100.00;98326.44;4963033;29;20074;-76
2021/12/28 11:59:06;;;;;;;10.23;4.07;;;;;;;6.63;100.00;98410.94;4945085;29;20090;-75
2021/12/28 12:01:48;;;;;;;11.73;4.05;;;;;;;6.54;100.00;98385.69;4932350;29;20027;-75
2021/12/28 12:04:54;;;;;;;12.05;4.47;;;;;;;6.97;100.00;98461.50;4950202;29;20043;-79